Time;durP1;ratioP1;P1;durP2;ratioP2;P2;SDS_P1;SDS_P2;PMS_P1;PMS_P2;Temp;Humidity;BMP_temperature;BMP_pressure;BME280_temperature;BME280_humidity;BME280_pressure;Samples;Min_cycle;Max_cycle;Signal;HPM_P1;HPM_P2
2021/10/03 00:02:12;;;;;;;0.40;0.20;;;;;;;20.40;76.14;99001.94;5003835;28;20472;-51
2021/10/03 00:04:42;;;;;;;0.87;0.87;;;;;;;20.48;75.84;99007.56;5014252;28;20886;-51
2021/10/03 00:07:10;;;;;;;0.40;0.30;;;;;;;20.58;75.61;99010.28;5002691;28;20927;-51
2021/10/03 00:09:38;;;;;;;0.40;0.20;;;;;;;20.54;75.59;99011.53;5008853;28;20455;-51
2021/10/03 00:12:05;;;;;;;0.60;0.60;;;;;;;20.59;75.15;98998.50;5021179;28;20828;-52
2021/10/03 00:14:33;;;;;;;0.50;0.40;;;;;;;20.68;74.99;99009.28;5001969;28;20871;-51
2021/10/03 00:17:00;;;;;;;0.40;0.20;;;;;;;20.68;75.24;99009.28;5012627;28;20510;-52
2021/10/03 00:19:28;;;;;;;0.40;0.23;;;;;;;20.72;75.52;99015.28;5008084;28;20484;-50
2021/10/03 00:21:57;;;;;;;2.87;2.67;;;;;;;20.73;75.66;99011.59;5008203;28;20426;-51
2021/10/03 00:24:24;;;;;;;0.40;0.30;;;;;;;20.68;76.04;99003.03;4995539;28;20458;-51
2021/10/03 00:26:51;;;;;;;0.40;0.30;;;;;;;20.72;75.40;98998.22;5008033;28;20488;-51
2021/10/03 00:29:18;;;;;;;0.70;0.70;;;;;;;20.73;75.66;99005.34;5003430;28;20507;-51
2021/10/03 00:31:45;;;;;;;0.40;0.20;;;;;;;20.90;75.48;99005.50;5001480;28;20493;-51
2021/10/03 00:34:12;;;;;;;1.07;0.83;;;;;;;20.74;75.44;98997.09;5014434;28;20808;-51
2021/10/03 00:36:39;;;;;;;4.13;1.60;;;;;;;20.73;75.87;99006.19;5012941;23;20498;-48
2021/10/03 00:39:07;;;;;;;0.40;0.20;;;;;;;20.74;75.55;99007.91;4986386;28;20441;-48
2021/10/03 00:41:34;;;;;;;0.67;0.67;;;;;;;20.90;75.29;99015.44;4988654;28;20454;-48
2021/10/03 00:44:01;;;;;;;0.40;0.30;;;;;;;20.74;75.22;99016.00;4984521;28;20481;-49
2021/10/03 00:46:28;;;;;;;0.40;0.30;;;;;;;20.87;75.03;99008.47;4994693;28;20552;-49
2021/10/03 00:48:56;;;;;;;0.40;0.30;;;;;;;20.88;75.12;99012.88;4986085;28;20833;-48
2021/10/03 00:51:22;;;;;;;0.50;0.40;;;;;;;20.78;75.21;99014.72;4990954;28;20540;-47
2021/10/03 00:53:49;;;;;;;0.53;0.30;;;;;;;20.84;75.21;98997.97;4994993;28;20503;-49
2021/10/03 00:56:17;;;;;;;0.40;0.30;;;;;;;20.82;75.36;99004.47;4985453;28;21064;-47
2021/10/03 00:58:45;;;;;;;0.40;0.20;;;;;;;20.83;74.90;99001.66;4994920;28;20449;-49
2021/10/03 01:01:12;;;;;;;0.40;0.20;;;;;;;20.87;74.88;98997.69;4991725;28;20893;-49
2021/10/03 01:03:40;;;;;;;0.40;0.20;;;;;;;20.86;75.07;98992.41;4983542;28;20544;-48
2021/10/03 01:06:08;;;;;;;0.40;0.30;;;;;;;20.88;75.26;98995.81;4991096;28;20502;-48
2021/10/03 01:08:36;;;;;;;0.40;0.20;;;;;;;20.95;74.92;98984.28;4976598;28;20458;-49
2021/10/03 01:11:04;;;;;;;0.40;0.20;;;;;;;20.96;75.21;98977.91;4992880;28;20457;-49
2021/10/03 01:13:32;;;;;;;0.40;0.20;;;;;;;20.86;75.30;98968.97;4994301;28;20454;-48
2021/10/03 01:15:59;;;;;;;0.40;0.20;;;;;;;20.69;75.58;98962.38;4994153;28;20524;-48
2021/10/03 01:18:26;;;;;;;1.73;1.70;;;;;;;20.80;75.25;98960.56;4994234;28;20456;-49
2021/10/03 01:20:54;;;;;;;0.40;0.20;;;;;;;20.85;74.98;98961.00;4981226;28;20457;-48
2021/10/03 01:23:21;;;;;;;0.50;0.37;;;;;;;20.80;75.21;98965.94;4994064;28;20850;-48
2021/10/03 01:25:51;;;;;;;0.40;0.20;;;;;;;20.77;75.44;98967.09;4979629;28;20526;-49
2021/10/03 01:28:18;;;;;;;0.40;0.30;;;;;;;20.78;75.09;98957.13;4987453;28;20802;-52
2021/10/03 01:30:51;;;;;;;0.40;0.20;;;;;;;20.75;75.28;98960.13;4981391;28;20973;-48
2021/10/03 01:33:18;;;;;;;0.40;0.20;;;;;;;20.76;75.23;98957.28;4983192;28;20508;-49
2021/10/03 01:35:46;;;;;;;1.53;1.53;;;;;;;20.75;75.29;98949.31;4986333;28;20518;-48
2021/10/03 01:38:14;;;;;;;0.40;0.20;;;;;;;20.66;75.33;98951.88;4988985;28;20485;-49
2021/10/03 01:40:43;;;;;;;6.63;2.20;;;;;;;20.52;75.64;98956.81;4984478;28;20509;-47
2021/10/03 01:43:10;;;;;;;0.40;0.30;;;;;;;20.52;75.60;98946.88;4989390;28;20877;-48
2021/10/03 01:45:37;;;;;;;0.97;0.97;;;;;;;20.59;75.18;98953.44;4992912;28;20494;-48
2021/10/03 01:48:23;;;;;;;0.40;0.30;;;;;;;20.72;75.13;98952.31;4991316;28;20455;-48
2021/10/03 01:51:11;;;;;;;0.40;0.20;;;;;;;20.63;74.98;98941.34;4982358;28;20505;-49
2021/10/03 01:53:44;;;;;;;0.93;0.93;;;;;;;20.66;74.49;98943.75;4993687;28;20871;-49
2021/10/03 01:56:13;;;;;;;0.40;0.20;;;;;;;20.53;74.49;98945.88;4989342;28;20563;-49
2021/10/03 01:58:50;;;;;;;0.40;0.20;;;;;;;20.41;75.12;98933.47;4983613;28;20882;-48
2021/10/03 02:01:22;;;;;;;0.40;0.30;;;;;;;20.46;75.62;98933.09;4993545;28;20966;-48
2021/10/03 02:03:50;;;;;;;0.40;0.30;;;;;;;20.57;74.80;98928.44;4992793;28;20502;-48
2021/10/03 02:06:18;;;;;;;0.40;0.20;;;;;;;20.51;75.19;98930.81;4988415;28;20541;-48
2021/10/03 02:08:49;;;;;;;2.50;0.83;;;;;;;20.53;75.00;98920.72;4985886;28;20523;-48
2021/10/03 02:11:16;;;;;;;0.50;0.50;;;;;;;20.64;74.46;98909.81;4980753;28;20473;-48
2021/10/03 02:13:43;;;;;;;1.67;0.80;;;;;;;20.62;74.04;98911.78;4990427;28;20994;-49
2021/10/03 02:16:11;;;;;;;0.77;0.70;;;;;;;20.62;74.37;98909.94;4980783;28;20488;-48
2021/10/03 02:18:40;;;;;;;2.47;2.37;;;;;;;20.70;74.22;98901.16;4992122;28;21045;-48
2021/10/03 02:21:09;;;;;;;0.80;0.80;;;;;;;20.58;74.08;98908.53;4981198;28;20478;-49
2021/10/03 02:23:37;;;;;;;0.77;0.77;;;;;;;20.68;74.22;98898.56;4986629;28;20453;-48
2021/10/03 02:26:05;;;;;;;0.40;0.27;;;;;;;20.70;73.91;98901.16;4982315;28;20485;-48
2021/10/03 02:28:32;;;;;;;0.43;0.37;;;;;;;20.65;73.66;98900.69;4993084;28;20449;-48
2021/10/03 02:31:07;;;;;;;0.40;0.20;;;;;;;20.67;73.58;98904.09;4984365;28;20954;-48
2021/10/03 02:33:36;;;;;;;2.20;1.30;;;;;;;20.71;73.12;98897.44;4990161;28;20449;-49
2021/10/03 02:36:04;;;;;;;0.40;0.30;;;;;;;20.63;73.67;98897.28;4982500;28;20990;-48
2021/10/03 02:38:32;;;;;;;0.50;0.43;;;;;;;20.78;73.20;98897.72;4990785;28;20958;-48
2021/10/03 02:41:00;;;;;;;0.40;0.20;;;;;;;20.75;72.81;98895.31;4993103;28;20492;-47
2021/10/03 02:43:32;;;;;;;0.40;0.20;;;;;;;20.85;72.38;98888.91;4979538;28;20910;-49
2021/10/03 02:46:00;;;;;;;0.40;0.20;;;;;;;20.66;73.75;98883.50;4980560;28;20494;-48
2021/10/03 02:48:30;;;;;;;0.60;0.60;;;;;;;20.72;72.93;98891.06;4986127;28;20513;-48
2021/10/03 02:50:57;;;;;;;0.83;0.83;;;;;;;20.69;72.97;98894.88;4987096;28;20477;-49
2021/10/03 02:53:25;;;;;;;5.57;0.57;;;;;;;20.60;73.40;98893.03;4992962;28;20449;-48
2021/10/03 02:55:54;;;;;;;0.50;0.37;;;;;;;20.67;73.40;98882.50;4979655;28;20497;-49
2021/10/03 02:58:21;;;;;;;0.40;0.30;;;;;;;20.72;73.23;98877.56;4992822;28;20449;-48
2021/10/03 03:00:51;;;;;;;0.40;0.20;;;;;;;20.83;72.61;98885.50;4992089;28;21024;-49
2021/10/03 03:03:18;;;;;;;0.50;0.50;;;;;;;20.73;73.07;98883.81;4992910;28;20990;-50
2021/10/03 03:05:45;;;;;;;0.50;0.40;;;;;;;20.76;72.82;98878.97;4992414;28;20987;-48
2021/10/03 03:08:12;;;;;;;0.40;0.40;;;;;;;20.62;73.28;98872.13;4992904;28;20519;-49
2021/10/03 03:10:39;;;;;;;0.50;0.50;;;;;;;20.53;73.96;98872.13;4992681;28;20520;-48
2021/10/03 03:13:06;;;;;;;0.40;0.20;;;;;;;20.47;74.39;98872.72;4984390;28;20501;-48
2021/10/03 03:15:32;;;;;;;0.40;0.20;;;;;;;20.33;75.00;98869.41;4988088;28;20498;-50
2021/10/03 03:17:59;;;;;;;0.40;0.40;;;;;;;20.45;73.44;98875.56;4992355;28;20962;-48
2021/10/03 03:20:26;;;;;;;0.40;0.20;;;;;;;20.62;72.42;98866.75;4990094;28;20887;-48
2021/10/03 03:22:53;;;;;;;0.47;0.40;;;;;;;20.72;71.90;98864.03;4982366;28;20485;-48
2021/10/03 03:25:20;;;;;;;0.40;0.20;;;;;;;20.82;71.41;98862.16;4992468;28;20469;-48
2021/10/03 03:27:47;;;;;;;0.50;0.50;;;;;;;20.70;71.79;98861.50;4983372;28;20921;-48
2021/10/03 03:30:14;;;;;;;4.20;1.77;;;;;;;20.76;71.50;98864.59;4988817;28;20977;-48
2021/10/03 03:32:41;;;;;;;0.40;0.20;;;;;;;20.80;70.72;98861.47;4992529;28;20497;-48
2021/10/03 03:35:10;;;;;;;6.30;1.40;;;;;;;20.95;70.10;98859.16;4989671;28;20498;-48
2021/10/03 03:37:37;;;;;;;0.40;0.20;;;;;;;20.87;70.34;98853.66;4982812;28;20454;-48
2021/10/03 03:40:06;;;;;;;0.63;0.57;;;;;;;20.95;69.65;98856.47;4992383;28;20508;-51
2021/10/03 03:42:33;;;;;;;0.57;0.57;;;;;;;20.97;69.63;98849.94;4988973;28;20971;-48
2021/10/03 03:45:00;;;;;;;0.40;0.20;;;;;;;20.99;69.57;98847.94;4979392;28;20536;-48
2021/10/03 03:47:27;;;;;;;0.50;0.30;;;;;;;20.97;69.39;98849.94;4992562;28;20551;-48
2021/10/03 03:49:55;;;;;;;0.40;0.20;;;;;;;20.74;71.83;98866.59;4988299;28;20450;-49
2021/10/03 03:52:22;;;;;;;0.40;0.30;;;;;;;20.66;72.74;98853.78;4977402;28;20490;-50
2021/10/03 03:54:49;;;;;;;0.63;0.63;;;;;;;20.57;73.62;98852.81;4990327;28;20492;-48
2021/10/03 03:57:16;;;;;;;0.40;0.20;;;;;;;20.49;73.96;98846.41;4982155;28;20475;-49
2021/10/03 03:59:43;;;;;;;0.70;0.70;;;;;;;20.38;73.86;98852.78;4988952;28;20493;-49
2021/10/03 04:02:09;;;;;;;2.87;0.97;;;;;;;20.28;74.37;98847.34;4987782;28;20511;-48
2021/10/03 04:04:37;;;;;;;0.40;0.30;;;;;;;19.92;76.52;98851.56;4995778;28;20453;-48
2021/10/03 04:07:04;;;;;;;0.40;0.30;;;;;;;19.85;77.54;98849.56;4983706;28;20542;-49
2021/10/03 04:09:31;;;;;;;0.40;0.30;;;;;;;19.58;78.63;98840.25;4994696;28;20456;-48
2021/10/03 04:11:59;;;;;;;1.27;1.27;;;;;;;19.73;77.85;98838.88;4995461;28;20974;-48
2021/10/03 04:14:26;;;;;;;0.40;0.40;;;;;;;19.71;77.96;98840.00;4982459;28;20481;-48
2021/10/03 04:16:55;;;;;;;0.40;0.30;;;;;;;19.59;78.26;98825.78;4995502;28;20473;-48
2021/10/03 04:19:22;;;;;;;0.40;0.20;;;;;;;19.39;79.15;98819.44;4981657;28;20481;-49
2021/10/03 04:21:49;;;;;;;3.30;0.60;;;;;;;19.31;79.87;98815.72;4982217;28;20454;-49
2021/10/03 04:24:16;;;;;;;0.53;0.53;;;;;;;19.11;81.44;98823.72;4988539;28;20458;-47
2021/10/03 04:26:43;;;;;;;0.40;0.20;;;;;;;18.86;83.88;98827.66;4988686;28;20489;-47
2021/10/03 04:29:09;;;;;;;0.40;0.20;;;;;;;18.68;85.31;98823.03;4983183;28;20461;-48
2021/10/03 04:31:36;;;;;;;0.40;0.20;;;;;;;18.56;86.28;98824.88;4995254;28;20492;-48
2021/10/03 04:34:04;;;;;;;0.60;0.60;;;;;;;18.46;87.00;98813.19;4995295;28;20489;-48
2021/10/03 04:36:31;;;;;;;39.90;2.40;;;;;;;18.52;86.51;98821.59;4981756;28;20489;-48
2021/10/03 04:38:58;;;;;;;0.57;0.57;;;;;;;18.47;87.27;98806.81;4995443;28;20454;-50
2021/10/03 04:41:25;;;;;;;0.60;0.60;;;;;;;18.48;87.04;98808.53;4981988;28;20505;-48
2021/10/03 04:43:52;;;;;;;0.93;0.93;;;;;;;18.62;85.44;98809.06;4995232;28;20512;-48
2021/10/03 04:46:19;;;;;;;1.70;0.67;;;;;;;18.92;82.89;98804.75;4981943;28;20545;-48
2021/10/03 04:48:46;;;;;;;0.40;0.30;;;;;;;19.19;79.88;98801.50;4986565;28;20489;-48
2021/10/03 04:51:13;;;;;;;0.40;0.30;;;;;;;19.41;78.56;98801.28;4980691;28;20486;-49
2021/10/03 04:53:40;;;;;;;0.40;0.20;;;;;;;19.41;79.08;98805.81;4994723;28;20489;-48
2021/10/03 04:56:08;;;;;;;0.40;0.20;;;;;;;19.22;80.91;98801.22;4994929;28;20469;-47
2021/10/03 04:58:36;;;;;;;0.40;0.20;;;;;;;19.14;82.31;98804.56;4995181;28;20454;-48
2021/10/03 05:01:03;;;;;;;0.40;0.30;;;;;;;18.88;84.14;98803.31;4984421;28;20868;-48
2021/10/03 05:03:30;;;;;;;1.13;0.90;;;;;;;18.68;84.92;98799.66;4994107;28;20454;-48
2021/10/03 05:05:57;;;;;;;0.40;0.20;;;;;;;18.67;85.71;98799.78;4992419;28;20865;-48
2021/10/03 05:08:24;;;;;;;0.40;0.20;;;;;;;18.62;85.80;98787.50;4991836;28;20525;-48
2021/10/03 05:10:51;;;;;;;1.80;1.67;;;;;;;18.53;86.51;98793.72;4987888;28;20458;-48
2021/10/03 05:13:18;;;;;;;0.40;0.20;;;;;;;18.59;86.20;98789.63;4988129;28;20497;-48
2021/10/03 05:15:45;;;;;;;0.40;0.20;;;;;;;18.47;87.32;98796.91;4980863;28;20927;-47
2021/10/03 05:18:12;;;;;;;3.10;1.17;;;;;;;18.56;87.60;98801.50;4994447;28;20477;-48
2021/10/03 05:20:39;;;;;;;0.40;0.30;;;;;;;18.70;87.07;98808.44;4981822;28;20962;-48
2021/10/03 05:23:06;;;;;;;1.80;1.23;;;;;;;18.75;87.16;98810.72;4994204;28;20512;-49
2021/10/03 05:25:32;;;;;;;0.40;0.20;;;;;;;18.72;87.42;98800.22;4994003;28;20509;-48
2021/10/03 05:27:59;;;;;;;0.83;0.83;;;;;;;18.81;86.90;98815.59;4994263;28;20520;-48
2021/10/03 05:30:27;;;;;;;0.40;0.20;;;;;;;18.59;87.89;98809.31;4982626;28;20491;-50
2021/10/03 05:32:54;;;;;;;2.03;0.67;;;;;;;18.67;88.07;98814.09;4985549;28;20507;-48
2021/10/03 05:35:21;;;;;;;0.40;0.23;;;;;;;18.35;88.62;98830.22;4989039;28;20512;-48
2021/10/03 05:37:48;;;;;;;0.50;0.40;;;;;;;18.03;90.72;98822.16;4981677;28;20453;-47
2021/10/03 05:40:16;;;;;;;0.40;0.20;;;;;;;18.03;90.85;98831.09;4988423;28;20509;-48
2021/10/03 05:42:43;;;;;;;0.40;0.20;;;;;;;18.10;90.62;98831.44;4982748;28;20994;-48
2021/10/03 05:45:10;;;;;;;1.97;1.00;;;;;;;18.09;91.00;98831.53;4992014;28;20453;-49
2021/10/03 05:47:37;;;;;;;1.90;1.80;;;;;;;18.19;89.78;98827.97;4993817;28;20529;-47
2021/10/03 05:50:06;;;;;;;0.80;0.50;;;;;;;18.28;89.57;98827.22;4984535;28;21041;-47
2021/10/03 05:52:33;;;;;;;0.80;0.77;;;;;;;18.15;89.86;98828.34;4975840;28;20450;-47
2021/10/03 05:55:00;;;;;;;1.60;1.50;;;;;;;18.22;89.02;98832.22;4992617;28;20516;-47
2021/10/03 05:57:27;;;;;;;0.50;0.50;;;;;;;18.25;89.03;98830.16;4992442;28;20445;-48
2021/10/03 05:59:54;;;;;;;0.60;0.53;;;;;;;18.17;89.67;98835.31;4986419;28;20792;-49
2021/10/03 06:02:21;;;;;;;0.40;0.20;;;;;;;18.30;89.73;98835.16;4993008;28;20520;-47
2021/10/03 06:04:48;;;;;;;0.40;0.20;;;;;;;18.28;89.46;98834.44;4985190;28;20496;-48
2021/10/03 06:07:15;;;;;;;0.40;0.20;;;;;;;18.29;89.64;98839.69;4989144;28;20990;-49
2021/10/03 06:09:42;;;;;;;0.40;0.30;;;;;;;18.40;89.12;98830.72;4989915;28;20504;-49
2021/10/03 06:12:09;;;;;;;0.40;0.33;;;;;;;18.21;89.95;98828.69;4990703;28;20457;-48
2021/10/03 06:14:36;;;;;;;0.80;0.77;;;;;;;18.23;90.01;98833.97;4992515;28;20458;-49
2021/10/03 06:17:03;;;;;;;0.40;0.30;;;;;;;18.27;89.74;98846.16;4990342;28;20512;-47
2021/10/03 06:19:31;;;;;;;0.40;0.30;;;;;;;18.40;89.64;98843.31;4984792;28;20500;-49
2021/10/03 06:22:00;;;;;;;0.40;0.20;;;;;;;18.25;89.38;98840.94;4990691;28;20466;-47
2021/10/03 06:24:28;;;;;;;0.40;0.30;;;;;;;18.10;90.50;98847.59;4985556;28;20964;-49
2021/10/03 06:26:54;;;;;;;0.63;0.63;;;;;;;18.30;89.28;98856.66;4989701;28;20481;-48
2021/10/03 06:29:22;;;;;;;1.10;1.10;;;;;;;18.33;89.17;98857.25;4973887;28;20467;-48
2021/10/03 06:31:49;;;;;;;0.40;0.20;;;;;;;18.20;90.00;98851.19;4989346;28;20997;-48
2021/10/03 06:34:16;;;;;;;0.40;0.20;;;;;;;18.20;90.02;98855.72;4993033;28;20457;-48
2021/10/03 06:36:43;;;;;;;0.60;0.57;;;;;;;18.09;91.41;98829.72;4980352;28;20497;-50
2021/10/03 06:39:10;;;;;;;0.40;0.20;;;;;;;18.36;91.95;98831.94;4993015;28;20488;-50
2021/10/03 06:41:37;;;;;;;0.40;0.30;;;;;;;18.23;93.90;98836.66;4989816;28;20458;-49
2021/10/03 06:44:04;;;;;;;0.40;0.20;;;;;;;18.43;93.08;98826.91;4983070;28;20477;-50
2021/10/03 06:46:31;;;;;;;0.40;0.20;;;;;;;17.93;95.84;98843.56;4992405;28;20520;-50
2021/10/03 06:48:58;;;;;;;0.40;0.20;;;;;;;17.86;97.26;98837.00;4992850;28;20454;-50
2021/10/03 06:51:25;;;;;;;0.40;0.20;;;;;;;17.79;98.86;98846.53;4979855;28;20481;-50
2021/10/03 06:53:52;;;;;;;2.97;2.87;;;;;;;17.71;99.43;98855.22;4992780;28;20977;-50
2021/10/03 06:56:19;;;;;;;1.17;1.17;;;;;;;18.13;98.67;98855.38;4989289;28;20477;-50
2021/10/03 06:58:45;;;;;;;4.77;0.50;;;;;;;17.89;98.75;98860.94;4983529;28;20499;-50
2021/10/03 07:01:15;;;;;;;0.43;0.30;;;;;;;18.11;98.27;98861.88;4994126;28;20450;-50
2021/10/03 07:03:43;;;;;;;1.93;1.93;;;;;;;17.99;97.50;98864.59;5000815;28;20448;-50
2021/10/03 07:06:11;;;;;;;0.40;0.20;;;;;;;18.19;98.57;98867.47;4990507;28;20900;-50
2021/10/03 07:08:39;;;;;;;0.40;0.30;;;;;;;18.48;95.88;98878.47;4984371;28;20489;-50
2021/10/03 07:11:06;;;;;;;0.40;0.30;;;;;;;18.27;96.35;98875.75;4992324;28;20458;-50
2021/10/03 07:13:33;;;;;;;0.40;0.20;;;;;;;18.37;97.06;98884.78;4988725;28;20449;-50
2021/10/03 07:16:00;;;;;;;0.50;0.40;;;;;;;18.52;93.28;98885.34;4989611;28;20512;-50
2021/10/03 07:18:27;;;;;;;1.43;0.93;;;;;;;18.37;92.82;98889.31;4986011;28;20458;-50
2021/10/03 07:20:54;;;;;;;0.70;0.70;;;;;;;18.64;91.28;98887.91;4980801;28;21065;-50
2021/10/03 07:23:21;;;;;;;0.43;0.30;;;;;;;18.65;90.39;98894.13;4982568;28;20500;-50
2021/10/03 07:25:48;;;;;;;0.83;0.83;;;;;;;18.59;90.77;98898.13;4986393;28;20469;-50
2021/10/03 07:28:15;;;;;;;0.40;0.20;;;;;;;18.55;90.88;98902.06;4985727;28;21041;-50
2021/10/03 07:30:42;;;;;;;0.40;0.20;;;;;;;18.68;89.85;98899.25;4975072;28;20485;-51
2021/10/03 07:33:09;;;;;;;0.50;0.50;;;;;;;18.79;89.26;98903.72;4981024;28;20450;-50
2021/10/03 07:35:36;;;;;;;2.13;1.00;;;;;;;18.71;90.56;98892.75;4985211;28;20544;-50
2021/10/03 07:38:03;;;;;;;0.40;0.30;;;;;;;18.63;90.66;98906.81;4977877;28;20481;-51
2021/10/03 07:40:30;;;;;;;0.40;0.20;;;;;;;18.62;91.28;98903.25;4983345;28;20477;-50
2021/10/03 07:42:56;;;;;;;0.40;0.30;;;;;;;18.59;93.23;98910.75;4996184;28;20869;-50
2021/10/03 07:45:24;;;;;;;0.73;0.73;;;;;;;18.61;91.95;98904.25;4986290;28;20915;-52
2021/10/03 07:47:50;;;;;;;0.40;0.20;;;;;;;18.58;91.90;98900.97;4992231;28;20485;-50
2021/10/03 07:50:17;;;;;;;0.40;0.30;;;;;;;18.54;91.86;98907.59;4987550;28;20461;-50
2021/10/03 07:52:44;;;;;;;0.40;0.40;;;;;;;18.61;92.03;98909.63;4996183;28;20457;-51
2021/10/03 07:55:11;;;;;;;0.40;0.30;;;;;;;18.69;92.61;98902.78;4996225;28;20450;-50
2021/10/03 07:57:40;;;;;;;0.40;0.20;;;;;;;18.78;91.36;98902.88;4994107;28;20959;-50
2021/10/03 08:00:08;;;;;;;0.40;0.30;;;;;;;18.60;91.70;98902.53;5000043;28;20526;-49
2021/10/03 08:02:36;;;;;;;0.80;0.80;;;;;;;18.84;90.68;98891.56;4997193;28;20512;-50
2021/10/03 08:05:04;;;;;;;0.40;0.20;;;;;;;18.66;90.74;98897.69;5003869;28;20527;-51
2021/10/03 08:07:32;;;;;;;0.60;0.60;;;;;;;18.74;89.70;98896.03;5008872;28;20567;-50
2021/10/03 08:09:59;;;;;;;0.50;0.47;;;;;;;18.87;89.64;98893.16;5005813;28;20950;-50
2021/10/03 08:12:26;;;;;;;0.40;0.20;;;;;;;18.86;89.73;98894.97;5011544;28;20453;-51
2021/10/03 08:14:53;;;;;;;1.63;1.53;;;;;;;19.01;90.26;98894.66;4995972;28;20512;-51
2021/10/03 08:17:20;;;;;;;0.40;0.20;;;;;;;18.84;89.69;98904.19;5001092;28;20472;-50
2021/10/03 08:19:46;;;;;;;0.40;0.30;;;;;;;18.79;89.56;98909.97;5002957;28;20504;-50
2021/10/03 08:22:13;;;;;;;0.40;0.20;;;;;;;19.00;88.81;98911.81;4997425;28;20495;-50
2021/10/03 08:24:40;;;;;;;0.40;0.20;;;;;;;18.85;89.49;98904.06;5007664;28;20600;-50
2021/10/03 08:27:08;;;;;;;1.23;1.23;;;;;;;18.94;88.63;98911.34;5012039;28;20547;-50
2021/10/03 08:29:34;;;;;;;9.67;0.67;;;;;;;18.93;87.88;98903.41;4984467;28;20605;-50
2021/10/03 08:32:02;;;;;;;0.40;0.20;;;;;;;19.08;87.28;98910.19;5000203;28;20456;-50
2021/10/03 08:34:29;;;;;;;0.40;0.20;;;;;;;19.08;87.07;98910.19;4999581;28;20492;-50
2021/10/03 08:36:56;;;;;;;0.40;0.20;;;;;;;19.05;87.55;98917.66;5012583;28;20480;-50
2021/10/03 08:39:23;;;;;;;0.93;0.93;;;;;;;19.17;86.82;98909.38;5014621;28;20448;-51
2021/10/03 08:41:50;;;;;;;0.40;0.20;;;;;;;19.09;87.72;98906.50;5014591;28;20515;-50
2021/10/03 08:44:18;;;;;;;0.40;0.20;;;;;;;19.15;86.56;98907.78;5014279;28;20510;-50
2021/10/03 08:46:46;;;;;;;0.40;0.27;;;;;;;19.13;85.78;98915.16;5013519;28;20507;-50
2021/10/03 08:49:17;;;;;;;0.40;0.37;;;;;;;19.19;85.78;98920.03;5014409;28;20910;-50
2021/10/03 08:51:48;;;;;;;4.63;0.63;;;;;;;19.24;85.11;98915.09;4988285;28;20484;-50
2021/10/03 08:54:17;;;;;;;0.40;0.23;;;;;;;19.36;85.48;98916.72;5014389;28;20476;-50
2021/10/03 08:56:46;;;;;;;0.40;0.20;;;;;;;19.30;85.19;98911.84;5014112;28;20477;-50
2021/10/03 08:59:13;;;;;;;0.40;0.20;;;;;;;19.40;83.21;98923.56;5014160;28;20484;-50
2021/10/03 09:02:06;;;;;;;0.60;0.60;;;;;;;19.54;82.76;98919.66;5014442;28;20491;-50
2021/10/03 09:04:34;;;;;;;0.40;0.30;;;;;;;19.63;84.01;98912.66;5010985;28;20457;-51
2021/10/03 09:07:07;;;;;;;0.40;0.27;;;;;;;19.76;82.12;98933.00;5014025;28;20476;-50
2021/10/03 09:09:55;;;;;;;0.40;0.20;;;;;;;19.81;83.36;98921.81;5007955;28;20480;-50
2021/10/03 09:12:35;;;;;;;2.40;0.70;;;;;;;19.76;85.33;98924.06;5010272;28;20488;-51
2021/10/03 09:15:13;;;;;;;1.37;1.37;;;;;;;19.79;85.23;98926.47;5014372;28;20510;-50
2021/10/03 09:17:40;;;;;;;0.40;0.20;;;;;;;19.86;83.50;98924.94;5003511;28;20828;-50
2021/10/03 09:20:15;;;;;;;0.40;0.20;;;;;;;19.96;85.14;98927.69;5014623;28;20488;-50
2021/10/03 09:23:01;;;;;;;0.40;0.40;;;;;;;19.94;84.95;98926.97;5014316;28;20456;-51
2021/10/03 09:25:34;;;;;;;0.60;0.60;;;;;;;19.98;84.41;98915.75;5014002;28;20492;-50
2021/10/03 09:28:03;;;;;;;0.47;0.37;;;;;;;20.09;80.83;98921.03;5014033;28;20546;-50
2021/10/03 09:30:30;;;;;;;1.07;1.07;;;;;;;20.23;76.69;98917.09;5013660;28;20488;-51
2021/10/03 09:32:59;;;;;;;0.50;0.30;;;;;;;20.45;76.55;98921.44;5013700;28;20507;-50
2021/10/03 09:35:29;;;;;;;0.50;0.30;;;;;;;20.38;75.78;98933.75;5013463;28;20527;-51
2021/10/03 09:37:57;;;;;;;0.50;0.43;;;;;;;20.44;74.77;98924.28;5013602;28;20933;-50
2021/10/03 09:40:24;;;;;;;0.47;0.27;;;;;;;20.53;74.31;98931.53;5013279;28;20774;-50
2021/10/03 09:42:54;;;;;;;0.40;0.20;;;;;;;20.69;73.20;98934.53;5013415;28;20452;-50
2021/10/03 09:45:22;;;;;;;1.00;0.43;;;;;;;20.65;73.22;98933.97;5013557;28;20492;-51
2021/10/03 09:48:05;;;;;;;0.47;0.30;;;;;;;20.59;73.05;98931.84;5011950;28;20525;-51
2021/10/03 09:50:34;;;;;;;0.40;0.20;;;;;;;20.75;72.59;98928.56;5013512;28;20496;-50
2021/10/03 09:53:01;;;;;;;0.40;0.20;;;;;;;20.89;70.83;98941.66;5013256;28;20497;-50
2021/10/03 09:55:29;;;;;;;0.40;0.30;;;;;;;20.96;70.41;98945.47;5013023;28;20476;-50
2021/10/03 09:57:57;;;;;;;0.60;0.40;;;;;;;21.08;70.51;98937.22;5013249;28;20927;-50
2021/10/03 10:00:27;;;;;;;1.27;0.87;;;;;;;20.97;69.45;98944.50;5013326;28;20484;-51
2021/10/03 10:03:17;;;;;;;0.40;0.20;;;;;;;20.92;69.56;98935.97;5013408;28;20445;-50
2021/10/03 10:09:27;;;;;;;0.40;0.20;;;;;;;21.14;68.30;98939.38;4985460;28;20468;-51
2021/10/03 10:15:25;;;;;;;0.40;0.30;;;;;;;21.31;69.22;98938.66;4990143;28;20595;-51
2021/10/03 10:17:53;;;;;;;0.40;0.20;;;;;;;21.19;69.08;98937.06;5000926;28;20460;-51
2021/10/03 10:20:27;;;;;;;0.53;0.50;;;;;;;21.04;70.52;98938.53;5028232;28;20464;-51
2021/10/03 10:23:00;;;;;;;0.40;0.20;;;;;;;21.08;70.45;98929.13;5011837;28;20476;-50
2021/10/03 10:25:41;;;;;;;0.47;0.33;;;;;;;21.13;69.93;98932.25;5028145;28;20496;-51
2021/10/03 10:28:11;;;;;;;0.40;0.30;;;;;;;21.18;69.83;98936.22;5012947;28;20483;-51
2021/10/03 10:31:03;;;;;;;0.50;0.40;;;;;;;21.20;70.10;98933.38;5012818;28;20427;-49
2021/10/03 10:33:56;;;;;;;0.47;0.37;;;;;;;21.28;69.77;98947.06;5012901;28;20559;-49
2021/10/03 10:36:28;;;;;;;0.40;0.20;;;;;;;21.28;71.88;98939.81;5012776;28;21069;-48
2021/10/03 10:39:07;;;;;;;0.40;0.20;;;;;;;21.18;72.92;98944.34;5012699;28;20532;-49
2021/10/03 10:41:39;;;;;;;1.50;0.50;;;;;;;21.15;74.45;98943.78;5012742;28;20451;-49
2021/10/03 10:44:28;;;;;;;0.40;0.30;;;;;;;21.27;76.54;98939.94;5012871;28;20449;-49
2021/10/03 10:46:59;;;;;;;2.60;2.50;;;;;;;21.19;73.84;98942.47;5010664;28;20479;-49
2021/10/03 10:49:37;;;;;;;0.60;0.50;;;;;;;21.05;78.38;98948.31;5012540;28;20597;-49
2021/10/03 10:52:20;;;;;;;0.40;0.20;;;;;;;21.16;77.39;98940.06;5027640;28;20451;-49
2021/10/03 10:55:04;;;;;;;0.40;0.20;;;;;;;21.17;75.10;98933.66;5012343;28;20449;-48
2021/10/03 10:57:33;;;;;;;0.40;0.23;;;;;;;21.10;77.11;98927.13;5012403;28;20493;-49
2021/10/03 11:00:29;;;;;;;0.40;0.30;;;;;;;21.18;77.39;98921.84;5012324;28;20962;-51
2021/10/03 11:02:58;;;;;;;0.40;0.30;;;;;;;21.05;75.15;98903.25;5012263;28;20444;-51
2021/10/03 11:05:37;;;;;;;0.40;0.30;;;;;;;21.20;73.17;98900.94;5012331;28;20509;-51
2021/10/03 11:08:08;;;;;;;0.40;0.20;;;;;;;21.14;72.78;98905.09;5016019;28;20480;-51
2021/10/03 11:11:01;;;;;;;0.50;0.30;;;;;;;21.16;71.53;98896.84;5003997;28;20488;-51
2021/10/03 11:13:51;;;;;;;0.40;0.20;;;;;;;21.22;72.18;98896.22;4986570;28;21020;-51
2021/10/03 11:16:26;;;;;;;0.40;0.20;;;;;;;21.15;71.74;98887.88;5010264;28;20476;-51
2021/10/03 11:18:57;;;;;;;0.40;0.20;;;;;;;21.17;72.05;98893.13;5012797;28;20444;-52
2021/10/03 11:21:30;;;;;;;1.43;0.93;;;;;;;21.36;70.83;98886.84;5016263;28;20448;-51
2021/10/03 11:23:59;;;;;;;0.40;0.20;;;;;;;21.29;71.20;98889.28;5016683;28;20426;-51
2021/10/03 11:26:27;;;;;;;0.40;0.20;;;;;;;21.40;71.35;98888.28;5016015;28;20472;-51
2021/10/03 11:28:57;;;;;;;2.17;2.10;;;;;;;21.46;71.09;98879.56;5015725;28;20512;-51
2021/10/03 11:31:48;;;;;;;0.40;0.20;;;;;;;21.76;70.22;98879.28;5016435;28;20866;-52
2021/10/03 11:34:37;;;;;;;0.40;0.20;;;;;;;21.98;69.72;98877.22;5016100;28;20472;-51
2021/10/03 11:37:04;;;;;;;0.63;0.57;;;;;;;22.12;69.38;98883.00;5015560;28;20568;-51
2021/10/03 11:39:53;;;;;;;0.40;0.30;;;;;;;22.15;69.19;98881.84;5016157;28;20519;-66
2021/10/03 11:42:26;;;;;;;0.50;0.40;;;;;;;22.00;69.06;98884.16;5015138;28;20444;-50
2021/10/03 11:45:11;;;;;;;0.40;0.20;;;;;;;22.11;68.54;98886.69;5015839;28;20456;-51
2021/10/03 11:47:40;;;;;;;0.40;0.20;;;;;;;22.44;68.64;98889.75;5015016;28;20480;-50
2021/10/03 11:50:08;;;;;;;0.43;0.30;;;;;;;22.51;68.20;98888.16;5015842;28;20528;-51
2021/10/03 11:52:37;;;;;;;0.40;0.20;;;;;;;22.68;67.67;98898.13;5015457;28;20457;-51